createdAt,value
2023-04-09T00:01:16.261Z,99231.53
2023-04-09T00:03:42.764Z,99225.66
2023-04-09T00:06:11.020Z,99223.22
2023-04-09T00:08:37.480Z,99234.88
2023-04-09T00:11:04.158Z,99233.59
2023-04-09T00:16:00.159Z,99231.97
2023-04-09T00:18:26.645Z,99231.97
2023-04-09T00:20:53.121Z,99233.25
2023-04-09T00:23:20.564Z,99239.00
2023-04-09T00:25:47.065Z,99228.03
2023-04-09T00:28:13.527Z,99231.66
2023-04-09T00:30:40.334Z,99234.47
2023-04-09T00:33:06.836Z,99226.75
2023-04-09T00:35:33.444Z,99224.34
2023-04-09T00:37:59.917Z,99226.59
2023-04-09T00:40:27.057Z,99219.94
2023-04-09T00:42:53.529Z,99220.78
2023-04-09T00:45:19.999Z,99222.63
2023-04-09T00:47:46.800Z,99217.09
2023-04-09T00:50:13.535Z,99219.34
2023-04-09T00:52:40.137Z,99220.50
2023-04-09T00:55:07.002Z,99213.94
2023-04-09T00:57:33.711Z,99211.78
2023-04-09T01:00:00.314Z,99206.53
2023-04-09T01:02:27.516Z,99210.38
2023-04-09T01:04:54.026Z,99214.75
2023-04-09T01:07:45.923Z,99209.28
2023-04-09T01:10:25.758Z,99216.69
2023-04-09T01:13:24.449Z,99209.56
2023-04-09T01:15:57.341Z,99207.13
2023-04-09T01:18:31.277Z,99208.38
2023-04-09T01:21:09.898Z,99223.41
2023-04-09T01:23:53.021Z,99220.16
2023-04-09T01:26:58.228Z,99219.78
2023-04-09T01:29:25.456Z,99226.03
2023-04-09T01:31:51.944Z,99223.53
2023-04-09T01:34:18.396Z,99234.72
2023-04-09T01:36:49.451Z,99228.28
2023-04-09T01:39:16.175Z,99240.97
2023-04-09T01:41:42.660Z,99234.31
2023-04-09T01:44:09.118Z,99244.09
2023-04-09T01:46:36.438Z,99244.19
2023-04-09T01:49:02.975Z,99245.25
2023-04-09T01:51:29.873Z,99243.34
2023-04-09T01:53:56.317Z,99237.22
2023-04-09T01:56:22.804Z,99251.84
2023-04-09T01:58:49.275Z,99256.25
2023-04-09T02:01:32.740Z,99254.53
2023-04-09T02:04:08.499Z,99251.31
2023-04-09T02:06:36.957Z,99247.47
2023-04-09T02:09:03.982Z,99250.69
2023-04-09T02:11:30.464Z,99255.41
2023-04-09T02:13:57.011Z,99248.56
2023-04-09T02:16:23.658Z,99244.72
2023-04-09T02:18:53.978Z,99243.63
2023-04-09T02:21:22.071Z,99248.03
2023-04-09T02:23:48.532Z,99250.47
2023-04-09T02:26:15.006Z,99252.41
2023-04-09T02:28:41.467Z,99252.69
2023-04-09T02:31:08.301Z,99242.28
2023-04-09T02:33:34.788Z,99244.19
2023-04-09T02:36:02.331Z,99241.75
2023-04-09T02:38:28.884Z,99243.19
2023-04-09T02:40:55.358Z,99236.59
2023-04-09T02:43:21.837Z,99236.59
2023-04-09T02:45:48.288Z,99237.72
2023-04-09T02:48:14.764Z,99235.34
2023-04-09T02:50:41.231Z,99242.75
2023-04-09T02:53:07.701Z,99235.06
2023-04-09T02:55:34.439Z,99224.03
2023-04-09T02:58:00.977Z,99232.25
2023-04-09T03:00:27.442Z,99224.94
2023-04-09T03:02:54.017Z,99223.34
2023-04-09T03:05:21.007Z,99221.44
2023-04-09T03:07:47.522Z,99226.63
2023-04-09T03:10:14.007Z,99221.16
2023-04-09T03:12:40.701Z,99224.50
2023-04-09T03:15:07.401Z,99222.31
2023-04-09T03:17:33.893Z,99215.72
2023-04-09T03:20:00.383Z,99214.09
2023-04-09T03:22:26.866Z,99215.97
2023-04-09T03:24:53.321Z,99212.72
2023-04-09T03:27:19.796Z,99221.84
2023-04-09T03:29:46.461Z,99206.53
2023-04-09T03:32:12.937Z,99215.84
2023-04-09T03:34:39.417Z,99215.94
2023-04-09T03:37:05.901Z,99212.06
2023-04-09T03:39:32.414Z,99204.44
2023-04-09T03:41:59.208Z,99208.56
2023-04-09T03:44:25.704Z,99195.13
2023-04-09T03:46:52.261Z,99203.09
2023-04-09T03:49:18.784Z,99201.72
2023-04-09T03:51:45.283Z,99203.63
2023-04-09T03:54:11.943Z,99201.72
2023-04-09T03:56:38.429Z,99205.53
2023-04-09T03:59:04.896Z,99200.31
2023-04-09T04:01:31.395Z,99202.22
2023-04-09T04:03:57.971Z,99195.91
2023-04-09T04:06:24.554Z,99197.31
2023-04-09T04:08:51.290Z,99198.97
2023-04-09T04:11:18.074Z,99214.31
2023-04-09T04:13:44.545Z,99208.84
2023-04-09T04:16:11.026Z,99207.53
2023-04-09T04:18:37.618Z,99215.44
2023-04-09T04:21:04.177Z,99217.97
2023-04-09T04:23:30.651Z,99219.84
2023-04-09T04:25:58.090Z,99216.56
2023-04-09T04:28:24.597Z,99210.03
2023-04-09T04:30:51.451Z,99213.63
2023-04-09T04:33:18.428Z,99212.81
2023-04-09T04:35:44.970Z,99216.13
2023-04-09T04:38:11.879Z,99221.88
2023-04-09T04:40:38.369Z,99209.06
2023-04-09T04:43:04.927Z,99215.66
2023-04-09T04:45:31.428Z,99215.41
2023-04-09T04:47:57.984Z,99215.66
2023-04-09T04:50:24.737Z,99214.06
2023-04-09T04:52:51.231Z,99220.09
2023-04-09T04:55:17.702Z,99219.53
2023-04-09T04:57:44.197Z,99216.78
2023-04-09T05:00:11.291Z,99210.25
2023-04-09T05:02:37.939Z,99215.44
2023-04-09T05:05:04.809Z,99214.06
2023-04-09T05:07:31.513Z,99215.72
2023-04-09T05:09:58.029Z,99216.25
2023-04-09T05:12:24.583Z,99209.16
2023-04-09T05:14:51.046Z,99206.66
2023-04-09T05:17:17.511Z,99214.06
2023-04-09T05:19:44.005Z,99214.88
2023-04-09T05:22:10.495Z,99214.06
2023-04-09T05:24:36.994Z,99220.34
2023-04-09T05:27:03.525Z,99220.63
2023-04-09T05:29:29.976Z,99222.25
2023-04-09T05:31:56.716Z,99219.50
2023-04-09T05:34:23.177Z,99216.19
2023-04-09T05:36:49.927Z,99221.88
2023-04-09T05:39:16.382Z,99228.19
2023-04-09T05:41:44.707Z,99219.91
2023-04-09T05:44:11.907Z,99226.75
2023-04-09T05:46:38.377Z,99219.88
2023-04-09T05:49:04.911Z,99227.78
2023-04-09T05:51:31.382Z,99233.31
2023-04-09T05:53:59.308Z,99229.16
2023-04-09T05:56:27.064Z,99233.03
2023-04-09T05:58:54.069Z,99232.16
2023-04-09T06:01:21.066Z,99229.16
2023-04-09T06:03:47.667Z,99235.16
2023-04-09T06:06:14.277Z,99232.69
2023-04-09T06:08:40.771Z,99226.31
2023-04-09T06:11:10.481Z,99226.28
2023-04-09T06:13:37.062Z,99226.72
2023-04-09T06:16:07.440Z,99230.00
2023-04-09T06:18:34.361Z,99229.66
2023-04-09T06:21:04.620Z,99227.19
2023-04-09T06:23:30.996Z,99236.41
2023-04-09T06:25:57.479Z,99233.09
2023-04-09T06:28:23.960Z,99235.41
2023-04-09T06:30:50.503Z,99232.25
2023-04-09T06:33:17.022Z,99239.00
2023-04-09T06:35:43.600Z,99233.41
2023-04-09T06:38:10.228Z,99238.56
2023-04-09T06:40:37.734Z,99230.34
2023-04-09T06:43:04.954Z,99235.41
2023-04-09T06:45:32.493Z,99227.72
2023-04-09T06:47:59.949Z,99238.69
2023-04-09T06:50:26.678Z,99238.59
2023-04-09T06:52:53.218Z,99242.66
2023-04-09T06:55:19.797Z,99233.34
2023-04-09T06:57:46.278Z,99234.22
2023-04-09T07:00:13.072Z,99232.63
2023-04-09T07:02:39.761Z,99226.22
2023-04-09T07:05:06.530Z,99222.38
2023-04-09T07:07:33.017Z,99224.59
2023-04-09T07:09:59.541Z,99215.38
2023-04-09T07:12:29.558Z,99214.09
2023-04-09T07:14:59.586Z,99205.38
2023-04-09T07:17:26.103Z,99203.97
2023-04-09T07:19:53.943Z,99209.84
2023-04-09T07:22:26.615Z,99201.47
2023-04-09T07:24:55.777Z,99200.22
2023-04-09T07:27:23.521Z,99189.38
2023-04-09T07:29:50.241Z,99186.31
2023-04-09T07:32:16.999Z,99184.59
2023-04-09T07:34:44.299Z,99183.28
2023-04-09T07:37:11.243Z,99182.22
2023-04-09T07:39:37.739Z,99178.41
2023-04-09T07:42:04.697Z,99172.78
2023-04-09T07:44:34.973Z,99173.19
2023-04-09T07:47:01.490Z,99179.31
2023-04-09T07:49:28.528Z,99174.84
2023-04-09T07:51:54.992Z,99181.34
2023-04-09T07:54:21.456Z,99180.53
2023-04-09T07:56:48.277Z,99183.13
2023-04-09T07:59:17.537Z,99180.59
2023-04-09T08:01:44.336Z,99174.50
2023-04-09T08:04:13.113Z,99183.44
2023-04-09T08:06:39.942Z,99182.69
2023-04-09T08:09:06.491Z,99180.31
2023-04-09T08:11:32.960Z,99180.81
2023-04-09T08:14:02.751Z,99185.34
2023-04-09T08:16:30.281Z,99185.34
2023-04-09T08:18:57.237Z,99186.16
2023-04-09T08:21:23.703Z,99176.66
2023-04-09T08:23:51.084Z,99186.91
2023-04-09T08:26:17.865Z,99185.28
2023-04-09T08:28:44.387Z,99188.94
2023-04-09T08:31:10.856Z,99193.09
2023-04-09T08:33:37.372Z,99182.75
2023-04-09T08:36:08.353Z,99182.31
2023-04-09T08:38:34.841Z,99179.88
2023-04-09T08:41:01.309Z,99173.88
2023-04-09T08:43:41.958Z,99182.50
2023-04-09T08:46:18.033Z,99185.78
2023-04-09T08:48:45.770Z,99181.03
2023-04-09T08:51:22.451Z,99183.19
2023-04-09T08:53:58.565Z,99191.34
2023-04-09T08:56:26.310Z,99193.28
2023-04-09T08:58:53.330Z,99184.97
2023-04-09T09:01:27.673Z,99177.81
2023-04-09T09:03:56.601Z,99181.69
2023-04-09T09:06:32.624Z,99180.66
2023-04-09T09:09:16.198Z,99178.91
2023-04-09T09:11:46.321Z,99172.66
2023-04-09T09:14:16.802Z,99168.28
2023-04-09T09:16:56.135Z,99182.81
2023-04-09T09:19:26.027Z,99176.44
2023-04-09T09:22:06.398Z,99173.38
2023-04-09T09:24:33.998Z,99162.97
2023-04-09T09:27:01.395Z,99161.78
2023-04-09T09:29:28.139Z,99174.03
2023-04-09T09:31:55.559Z,99170.44
2023-04-09T09:34:23.952Z,99155.94
2023-04-09T09:36:50.507Z,99158.84
2023-04-09T09:39:18.046Z,99164.69
2023-04-09T09:41:45.332Z,99151.34
2023-04-09T09:44:13.016Z,99160.16
2023-04-09T09:46:41.214Z,99158.44
2023-04-09T09:49:08.324Z,99170.41
2023-04-09T09:51:37.135Z,99149.72
2023-04-09T09:54:03.872Z,99164.03
2023-04-09T09:56:34.711Z,99172.31
2023-04-09T09:59:12.872Z,99172.94
2023-04-09T10:01:39.510Z,99174.34
2023-04-09T10:04:06.369Z,99163.59
2023-04-09T10:06:34.134Z,99160.25
2023-04-09T10:09:03.363Z,99160.59
2023-04-09T10:11:31.575Z,99153.25
2023-04-09T10:13:58.985Z,99154.38
2023-04-09T10:16:28.605Z,99153.91
2023-04-09T10:18:56.026Z,99160.25
2023-04-09T10:21:47.600Z,99149.47
2023-04-09T10:24:14.101Z,99147.91
2023-04-09T10:26:41.019Z,99157.34
2023-04-09T10:29:11.625Z,99157.47
2023-04-09T10:32:04.553Z,99143.22
2023-04-09T10:34:33.261Z,99145.81
2023-04-09T10:36:59.773Z,99138.25
2023-04-09T10:39:32.524Z,99154.00
2023-04-09T10:42:00.390Z,99135.97
2023-04-09T10:44:27.498Z,99129.03
2023-04-09T10:46:56.825Z,99126.34
2023-04-09T10:49:27.026Z,99125.22
2023-04-09T10:52:12.217Z,99133.81
2023-04-09T10:54:46.296Z,99130.94
2023-04-09T10:57:21.068Z,99126.72
2023-04-09T10:59:54.553Z,99123.72
2023-04-09T11:02:31.823Z,99121.16
2023-04-09T11:05:05.351Z,99121.59
2023-04-09T11:07:32.099Z,99115.97
2023-04-09T11:09:58.600Z,99111.41
2023-04-09T11:12:25.373Z,99112.56
2023-04-09T11:14:52.352Z,99121.31
2023-04-09T11:17:18.923Z,99113.16
2023-04-09T11:19:45.552Z,99118.09
2023-04-09T11:22:12.046Z,99121.66
2023-04-09T11:24:42.162Z,99116.81
2023-04-09T11:27:09.067Z,99114.88
2023-04-09T11:29:36.108Z,99106.97
2023-04-09T11:32:02.807Z,99107.38
2023-04-09T11:34:29.285Z,99117.25
2023-04-09T11:36:56.919Z,99122.94
2023-04-09T11:39:23.414Z,99114.84
2023-04-09T11:41:49.884Z,99113.47
2023-04-09T11:44:16.471Z,99114.44
2023-04-09T11:46:43.026Z,99109.97
2023-04-09T11:49:09.626Z,99108.53
2023-04-09T11:51:36.132Z,99103.59
2023-04-09T11:54:05.419Z,99108.66
2023-04-09T11:56:32.438Z,99113.38
2023-04-09T11:58:59.052Z,99106.22
2023-04-09T12:01:26.139Z,99110.78
2023-04-09T12:03:53.908Z,99110.59
2023-04-09T12:06:21.563Z,99102.31
2023-04-09T12:08:48.059Z,99096.66
2023-04-09T12:11:15.707Z,99100.94
2023-04-09T12:13:45.192Z,99098.25
2023-04-09T12:16:14.753Z,99101.50
2023-04-09T12:18:41.578Z,99096.06
2023-04-09T12:21:08.109Z,99099.34
2023-04-09T12:23:35.087Z,99102.28
2023-04-09T12:26:02.120Z,99105.97
2023-04-09T12:28:28.662Z,99102.72
2023-04-09T12:30:55.186Z,99107.88
2023-04-09T12:33:21.779Z,99101.78
2023-04-09T12:35:48.364Z,99103.41
2023-04-09T12:38:14.829Z,99095.69
2023-04-09T12:40:41.309Z,99103.78
2023-04-09T12:43:07.788Z,99105.09
2023-04-09T12:45:34.295Z,99092.78
2023-04-09T12:48:00.891Z,99089.84
2023-04-09T12:50:28.311Z,99078.69
2023-04-09T12:52:54.825Z,99074.41
2023-04-09T12:55:22.154Z,99073.41
2023-04-09T12:57:51.272Z,99077.47
2023-04-09T13:00:17.785Z,99042.56
2023-04-09T13:02:44.332Z,99043.88
2023-04-09T13:05:10.898Z,99031.81
2023-04-09T13:07:37.423Z,99036.97
2023-04-09T13:10:03.999Z,99035.63
2023-04-09T13:12:30.523Z,99012.00
2023-04-09T13:14:57.177Z,99011.84
2023-04-09T13:17:23.839Z,99034.19
2023-04-09T13:19:51.540Z,99040.50
2023-04-09T13:22:18.572Z,99034.44
2023-04-09T13:24:45.070Z,99044.19
2023-04-09T13:27:11.602Z,99042.50
2023-04-09T13:29:38.539Z,99035.09
2023-04-09T13:32:07.426Z,99035.56
2023-04-09T13:34:34.901Z,99033.84
2023-04-09T13:37:02.369Z,99034.44
2023-04-09T13:39:28.901Z,99041.16
2023-04-09T13:41:56.215Z,99032.78
2023-04-09T13:44:24.146Z,99043.16
2023-04-09T13:46:50.675Z,99037.03
2023-04-09T13:49:17.667Z,99050.03
2023-04-09T13:51:44.251Z,99048.09
2023-04-09T13:54:11.264Z,99038.94
2023-04-09T13:56:38.450Z,99044.78
2023-04-09T13:59:04.940Z,99042.31
2023-04-09T14:01:31.718Z,99031.78
2023-04-09T14:03:58.387Z,99037.31
2023-04-09T14:06:24.933Z,99044.03
2023-04-09T14:08:51.673Z,99028.13
2023-04-09T14:11:18.251Z,99048.22
2023-04-09T14:13:44.716Z,99037.53
2023-04-09T14:16:11.238Z,99044.41
2023-04-09T14:18:37.771Z,99024.78
2023-04-09T14:21:04.326Z,99028.78
2023-04-09T14:23:31.081Z,99027.59
2023-04-09T14:25:57.572Z,99030.50
2023-04-09T14:28:24.031Z,99008.31
2023-04-09T14:30:50.545Z,99017.75
2023-04-09T14:33:17.036Z,99018.09
2023-04-09T14:35:43.583Z,99010.31
2023-04-09T14:38:10.443Z,99019.00
2023-04-09T14:40:36.928Z,99019.72
2023-04-09T14:43:03.479Z,99026.09
2023-04-09T14:45:30.779Z,99001.63
2023-04-09T14:47:57.571Z,98997.50
2023-04-09T14:50:24.152Z,98985.97
2023-04-09T14:52:50.693Z,98990.91
2023-04-09T14:55:17.207Z,98995.22
2023-04-09T14:57:43.721Z,98970.47
2023-04-09T15:00:11.468Z,98956.09
2023-04-09T15:02:38.647Z,98975.81
2023-04-09T15:05:05.624Z,98986.84
2023-04-09T15:07:32.177Z,98974.47
2023-04-09T15:10:01.691Z,98973.56
2023-04-09T15:12:29.059Z,98982.72
2023-04-09T15:14:57.004Z,98984.34
2023-04-09T15:17:24.164Z,98985.75
2023-04-09T15:19:52.762Z,98964.63
2023-04-09T15:22:19.242Z,98971.94
2023-04-09T15:24:45.996Z,98966.13
2023-04-09T15:27:12.481Z,98970.72
2023-04-09T15:29:38.970Z,98979.94
2023-04-09T15:32:05.517Z,98976.94
2023-04-09T15:34:32.069Z,98996.06
2023-04-09T15:36:58.614Z,98989.41
2023-04-09T15:39:28.177Z,99007.69
2023-04-09T15:41:58.204Z,99009.72
2023-04-09T15:44:25.268Z,98995.34
2023-04-09T15:46:52.061Z,98996.84
2023-04-09T15:49:19.438Z,98996.38
2023-04-09T15:51:45.932Z,98997.94
2023-04-09T15:54:12.412Z,98993.78
2023-04-09T15:56:40.146Z,98986.59
2023-04-09T15:59:08.116Z,98985.88
2023-04-09T16:01:37.834Z,98979.59
2023-04-09T16:04:04.692Z,98989.97
2023-04-09T16:06:31.437Z,98990.38
2023-04-09T16:08:57.913Z,98985.84
2023-04-09T16:11:24.548Z,98987.31
2023-04-09T16:13:51.014Z,98987.19
2023-04-09T16:16:17.642Z,98999.53
2023-04-09T16:18:44.444Z,98985.84
2023-04-09T16:21:11.198Z,98996.78
2023-04-09T16:23:38.447Z,98983.00
2023-04-09T16:26:05.285Z,98978.78
2023-04-09T16:28:31.773Z,98989.56
2023-04-09T16:30:59.032Z,98980.34
2023-04-09T16:33:25.627Z,98977.97
2023-04-09T16:35:52.128Z,98978.38
2023-04-09T16:38:18.637Z,98970.16
2023-04-09T16:40:45.145Z,98973.91
2023-04-09T16:43:11.684Z,98972.22
2023-04-09T16:45:38.201Z,98998.38
2023-04-09T16:48:06.285Z,98998.72
2023-04-09T16:50:33.007Z,98987.41
2023-04-09T16:53:01.057Z,98990.38
2023-04-09T16:55:27.541Z,98981.66
2023-04-09T16:57:55.921Z,98977.94
2023-04-09T17:00:22.532Z,98988.34
2023-04-09T17:02:49.455Z,98998.53
2023-04-09T17:05:17.937Z,98994.78
2023-04-09T17:07:44.743Z,98986.63
2023-04-09T17:10:11.456Z,98986.28
2023-04-09T17:12:38.167Z,98990.88
2023-04-09T17:15:04.978Z,98991.53
2023-04-09T17:17:31.491Z,98987.13
2023-04-09T17:19:59.969Z,98993.66
2023-04-09T17:22:26.450Z,98997.72
2023-04-09T17:24:53.183Z,98988.44
2023-04-09T17:27:19.827Z,98989.41
2023-04-09T17:29:46.324Z,99005.28
2023-04-09T17:32:12.801Z,99010.94
2023-04-09T17:34:39.407Z,98989.03
2023-04-09T17:37:05.906Z,98998.34
2023-04-09T17:39:32.364Z,99003.00
2023-04-09T17:42:00.540Z,99000.84
2023-04-09T17:44:27.069Z,98999.19
2023-04-09T17:46:53.953Z,98995.22
2023-04-09T17:49:22.347Z,99001.06
2023-04-09T17:51:48.984Z,99003.81
2023-04-09T17:54:15.796Z,98990.88
2023-04-09T17:56:42.298Z,98985.16
2023-04-09T17:59:08.793Z,98973.06
2023-04-09T18:01:35.400Z,98981.91
2023-04-09T18:04:02.309Z,98979.41
2023-04-09T18:06:29.233Z,98984.31
2023-04-09T18:08:55.719Z,98985.38
2023-04-09T18:11:23.756Z,98986.78
2023-04-09T18:13:53.471Z,98986.22
2023-04-09T18:16:25.726Z,98980.97
2023-04-09T18:18:52.374Z,98977.88
2023-04-09T18:21:19.327Z,98984.31
2023-04-09T18:23:45.804Z,98987.97
2023-04-09T18:26:12.314Z,98983.22
2023-04-09T18:28:39.393Z,98979.13
2023-04-09T18:31:05.930Z,98975.69
2023-04-09T18:33:32.505Z,98977.28
2023-04-09T18:36:02.037Z,98980.19
2023-04-09T18:38:29.384Z,98978.44
2023-04-09T18:40:58.606Z,98976.03
2023-04-09T18:43:25.946Z,98983.63
2023-04-09T18:45:52.688Z,98981.31
2023-04-09T18:48:19.204Z,98974.38
2023-04-09T18:50:45.962Z,98977.59
2023-04-09T18:53:12.697Z,98974.69
2023-04-09T18:55:39.225Z,98977.28
2023-04-09T18:58:08.684Z,98973.38
2023-04-09T19:00:35.791Z,98970.00
2023-04-09T19:03:02.492Z,98985.22
2023-04-09T19:05:32.587Z,98984.44
2023-04-09T19:07:59.857Z,98989.56
2023-04-09T19:10:27.145Z,98995.00
2023-04-09T19:12:53.873Z,98995.13
2023-04-09T19:15:26.495Z,98992.91
2023-04-09T19:17:53.343Z,98999.50
2023-04-09T19:20:20.015Z,99000.44
2023-04-09T19:22:48.015Z,99001.91
2023-04-09T19:25:15.619Z,98999.84
2023-04-09T19:27:42.096Z,98993.97
2023-04-09T19:30:09.229Z,98992.97
2023-04-09T19:32:36.070Z,98990.72
2023-04-09T19:35:02.848Z,98992.34
2023-04-09T19:37:30.376Z,98991.59
2023-04-09T19:39:57.625Z,98981.22
2023-04-09T19:42:24.508Z,98980.50
2023-04-09T19:44:50.976Z,98978.88
2023-04-09T19:47:17.601Z,98977.44
2023-04-09T19:49:44.808Z,98983.59
2023-04-09T19:52:11.551Z,98973.53
2023-04-09T19:54:38.065Z,98980.81
2023-04-09T19:57:04.782Z,98990.53
2023-04-09T19:59:36.107Z,98984.19
2023-04-09T20:02:02.793Z,98976.53
2023-04-09T20:04:30.877Z,98980.81
2023-04-09T20:06:57.588Z,98981.50
2023-04-09T20:09:26.324Z,98983.25
2023-04-09T20:11:54.186Z,98994.72
2023-04-09T20:14:21.223Z,98994.50
2023-04-09T20:16:47.989Z,98989.97
2023-04-09T20:19:14.601Z,98991.06
2023-04-09T20:21:41.912Z,98999.19
2023-04-09T20:24:08.366Z,98994.53
2023-04-09T20:26:34.830Z,98997.66
2023-04-09T20:29:01.782Z,98986.38
2023-04-09T20:31:28.529Z,98993.34
2023-04-09T20:33:55.208Z,98982.81
2023-04-09T20:36:21.671Z,98986.16
2023-04-09T20:38:48.173Z,98983.94
2023-04-09T20:41:14.640Z,98985.84
2023-04-09T20:43:41.248Z,98983.94
2023-04-09T20:46:07.848Z,98977.31
2023-04-09T20:48:34.390Z,98978.78
2023-04-09T20:51:02.024Z,98976.50
2023-04-09T20:53:28.603Z,98973.06
2023-04-09T20:55:55.271Z,98977.13
2023-04-09T20:58:21.727Z,98975.28
2023-04-09T21:00:48.188Z,98975.19
2023-04-09T21:03:15.922Z,98962.81
2023-04-09T21:05:42.679Z,98957.00
2023-04-09T21:08:14.547Z,98952.53
2023-04-09T21:10:41.164Z,98947.50
2023-04-09T21:13:07.626Z,98950.25
2023-04-09T21:15:34.097Z,98949.88
2023-04-09T21:18:00.623Z,98957.63
2023-04-09T21:20:27.210Z,98951.19
2023-04-09T21:22:54.472Z,98951.63
2023-04-09T21:25:21.001Z,98950.25
2023-04-09T21:27:47.481Z,98954.88
2023-04-09T21:30:13.952Z,98955.97
2023-04-09T21:32:40.447Z,98959.47
2023-04-09T21:35:07.236Z,98947.94
2023-04-09T21:37:34.312Z,98950.16
2023-04-09T21:40:00.827Z,98945.19
2023-04-09T21:42:27.739Z,98949.88
2023-04-09T21:44:54.228Z,98938.94
2023-04-09T21:47:20.828Z,98944.50
2023-04-09T21:49:47.388Z,98943.63
2023-04-09T21:52:15.059Z,98951.50
2023-04-09T21:54:42.148Z,98951.28
2023-04-09T21:57:08.647Z,98946.81
2023-04-09T21:59:36.324Z,98953.88
2023-04-09T22:02:06.087Z,98952.13
2023-04-09T22:04:34.845Z,98951.13
2023-04-09T22:07:02.015Z,98949.38
2023-04-09T22:09:28.520Z,98950.59
2023-04-09T22:11:55.019Z,98937.53
2023-04-09T22:14:21.720Z,98949.69
2023-04-09T22:16:48.303Z,98951.72
2023-04-09T22:19:15.225Z,98950.38
2023-04-09T22:21:41.957Z,98940.41
2023-04-09T22:24:08.443Z,98944.75
2023-04-09T22:26:34.910Z,98944.22
2023-04-09T22:29:04.362Z,98940.97
2023-04-09T22:31:32.483Z,98947.19
2023-04-09T22:34:06.873Z,98943.69
2023-04-09T22:36:40.071Z,98944.09
2023-04-09T22:39:06.568Z,98943.97
2023-04-09T22:41:33.045Z,98935.13
2023-04-09T22:43:59.514Z,98934.91
2023-04-09T22:46:26.003Z,98940.88
2023-04-09T22:48:52.499Z,98936.78
2023-04-09T22:51:19.017Z,98932.53
2023-04-09T22:53:46.278Z,98936.19
2023-04-09T22:56:13.262Z,98929.97
2023-04-09T22:58:40.241Z,98920.91
2023-04-09T23:01:07.016Z,98920.34
2023-04-09T23:03:33.533Z,98927.31
2023-04-09T23:06:00.463Z,98918.41
2023-04-09T23:08:26.965Z,98909.47
2023-04-09T23:10:54.240Z,98917.00
2023-04-09T23:13:20.700Z,98915.19
2023-04-09T23:15:47.222Z,98916.91
2023-04-09T23:18:13.690Z,98923.56
2023-04-09T23:20:40.234Z,98927.63
2023-04-09T23:23:07.262Z,98930.28
2023-04-09T23:25:33.721Z,98936.63
2023-04-09T23:28:00.293Z,98940.88
2023-04-09T23:30:27.153Z,98936.63
2023-04-09T23:32:55.561Z,98931.31
2023-04-09T23:35:23.555Z,98932.13
2023-04-09T23:37:50.452Z,98933.13
2023-04-09T23:40:18.007Z,98934.97
2023-04-09T23:42:45.199Z,98940.09
2023-04-09T23:45:11.837Z,98940.50
2023-04-09T23:47:38.334Z,98938.78
2023-04-09T23:50:06.028Z,98934.28
2023-04-09T23:52:36.602Z,98941.00
2023-04-09T23:55:03.626Z,98932.56
2023-04-09T23:57:30.109Z,98929.59
2023-04-09T23:59:57.609Z,98930.41
